Station info - map view · info · telemetry · weather · raw · status · beacons · messages · bulletins · browse · moving · my account
Callsign, ship name or locator: Clear       
It is possible to search using wildcards (*?) after a prefix. Example: OH*
APRS station DL1GMG-9 - show graphs
Map loading...
Comment: 13.7V 17C HDOP01.4 SATS06 Gerold Home QTH Ulm OpentrackerPlus Profile1
Location: 47°35.05' N 10°19.92' E - locator JN57DO90UE - show map - static map
1.5 miles East bearing 88° from Rettenberg, Regierungsbezirk Schwaben, Bavaria, Germany [?]
4.2 miles Northeast bearing 33° from Burgberg, Bavaria, Germany
59.7 miles Southwest bearing 205° from Augsburg, Regierungsbezirk Schwaben, Bavaria, Germany
69.1 miles Southwest bearing 237° from München (Muenchen), Regierungsbezirk Oberbayern, Bavaria, Germany
Last position: 2019-03-17 04:18:29 EDT (6d 14h23m ago)
2019-03-17 09:18:29 CET local time at Rettenberg, Germany [?]
Altitude: 3205 ft
Course: 200°
Speed: 7 MPH
Device: Argent Data Systems: OpenTracker (tracker)
Last path: DL1GMG-9>APOTC1 via WIDE1-1,WIDE2-1,qAR,DB0MM (good)
Positions stored: 248845
Other SSIDs: DL1GMG-15 DL1GMG-5 DL1GMG-6
Stations near current position of DL1GMG-9 - show more
callsign distance last heard - EDT      callsign distance last heard - EDT
DB0ESS B2.2 miles 199°2019-03-23 18:23:15 DB0ESS C2.2 miles 199°2019-03-23 18:22:55
DB0ESS-C2.2 miles 199°2019-03-23 18:23:05 DB0ESS-B2.2 miles 199°2019-03-23 18:23:25
DB0ESS A2.2 miles 199°2019-03-23 18:23:35 DB0ESS-A2.2 miles 199°2019-03-23 18:23:45
P03301524.0 miles 120°2019-03-22 02:28:34 PA0HHN-DL4.7 miles 209°2019-02-22 16:29:37
DJ7TF-95.0 miles 253°2019-03-12 02:37:37 DG7MEU B5.1 miles 257°2019-03-23 18:34:02
DG7MEU-B5.1 miles 257°2019-03-23 18:34:12 DG7MEU-R5.1 miles 257°2019-03-23 18:35:34
DB1MSO-155.2 miles 223°2019-03-23 18:26:51 DB7MJ5.3 miles 206°2019-03-20 16:35:03
DB7MJ-65.5 miles 206°2019-03-18 10:31:43 CW76935.5 miles 206°2019-03-23 18:15:05
DB7MJ-C5.5 miles 206°2019-03-23 04:55:07 DB7MJ-B5.5 miles 206°2019-03-23 18:41:32
DM0ESS-B5.5 miles 206°2019-03-23 18:21:59 DB7MJ B5.5 miles 206°2019-03-23 18:41:22
Stations which heard DL1GMG-9 directly on radio –
callsign pkts first heard - EDT last heard longest (tx => rx) longest at - EDT
DB0RZ 47 2019-03-03 11:11:01 2019-03-17 04:18:38 JN57DO > JN48SD 53.7 miles 318° 2019-03-17 04:18:38
DB0SPN 1 2019-03-03 05:46:26 2019-03-03 05:46:26 JO71AA > JO71ER 50.2 miles 15° 2019-03-03 05:46:26
DB0GER 1 2019-03-03 07:42:13 2019-03-03 07:42:13 JO60CL > JO60BV 28.6 miles 355° 2019-03-03 07:42:13
DB0VOX 40 2019-03-03 09:11:00 2019-03-03 10:05:48 JN59FG > JN59MK 29.7 miles 66° 2019-03-03 10:05:48
DB0ZD 7 2019-03-17 03:28:45 2019-03-17 03:42:04 JN57CW > JN57CM 26.8 miles 180° 2019-03-17 03:28:45
DB0ADS 2 2019-03-03 08:55:37 2019-03-03 09:15:24 JN59ST > JN59GT 41.0 miles 269° 2019-03-03 08:55:37
DB0RIE 1 2019-03-03 07:30:24 2019-03-03 07:30:24 JO60EO > JO50NV 57.5 miles 290° 2019-03-03 07:30:24
DB0KUN 1 2019-03-03 10:27:17 2019-03-03 10:27:17 JN59CB > JN49TH 29.2 miles 308° 2019-03-03 10:27:17
DB0FIG 6 2019-03-17 04:00:16 2019-03-17 04:17:21 JN57EO > JN47RQ 42.2 miles 280° 2019-03-17 04:17:21
DB0LP 1 2019-03-03 09:54:41 2019-03-03 09:54:41 JN59IG > JN59UD 46.2 miles 100° 2019-03-03 09:54:41
DM0MW 15 2019-03-03 06:29:15 2019-03-03 07:14:12 JO61SB > JO60LX 25.0 miles 258° 2019-03-03 06:29:15
DB0WBE 7 2019-03-03 05:47:46 2019-03-03 06:48:41 JO60NX > JO61SL 39.9 miles 27° 2019-03-03 06:48:41
DB0NM 1 2019-03-03 09:42:24 2019-03-03 09:42:24 JN59LH > JN59RG 23.3 miles 95° 2019-03-03 09:42:24
DB0LPZ 9 2019-03-03 06:44:11 2019-03-03 07:23:54 JO60FP > JO61FI 47.8 miles 359° 2019-03-03 07:23:54
DB0TTM 2 2019-03-03 10:10:05 2019-03-03 10:39:34 JN58CU > JN49VJ 40.8 miles 337° 2019-03-03 10:39:34
OK1OEM-1 2 2019-03-03 05:58:36 2019-03-03 05:59:13 JO60XX > JO60SH 49.6 miles 203° 2019-03-03 05:58:36
HB9BB 9 2019-03-17 03:07:27 2019-03-17 03:30:19 JN58BF > JN47RD 82.4 miles 203° 2019-03-17 03:07:27
DF6MD-10 1 2019-03-17 04:03:05 2019-03-17 04:03:05 JN57DO > JN57GW 26.0 miles 23° 2019-03-17 04:03:05
DB0FOR 2 2019-03-03 08:57:17 2019-03-03 08:59:21 JN59SS > JN59MO 24.4 miles 242° 2019-03-03 08:57:17
DD5ASA 4 2019-03-03 05:41:52 2019-03-03 06:16:09 JO60VX > JO70DW 25.2 miles 99° 2019-03-03 06:16:09
DO3SYM-10 1 2019-03-03 09:18:59 2019-03-03 09:18:59 JN59PM > JN59SM 9.7 miles 91° 2019-03-03 09:18:59
DB0UAL-10 1 2019-03-17 03:16:48 2019-03-17 03:16:48 JN58BC > JN57FW 17.7 miles 127° 2019-03-17 03:16:48
DB0SAA-10 31 2019-03-03 10:03:20 2019-03-08 09:09:36 JN59FG > JN58BT 36.9 miles 210° 2019-03-03 10:03:20
DB0SON-3 1 2019-03-03 08:34:29 2019-03-03 08:34:29 JN59TV > JO50OJ 38.5 miles 331° 2019-03-03 08:34:29
DB0SPB 3 2019-03-03 05:41:54 2019-03-03 06:09:14 JO60WW > JO70IX 34.8 miles 88° 2019-03-03 06:09:14
DB0ERZ-10 1 2019-03-03 07:24:17 2019-03-03 07:24:17 JO60FP > JO60HK 15.1 miles 153° 2019-03-03 07:24:17
DM0SAT-3 1 2019-03-17 04:10:21 2019-03-17 04:10:21 JN57DO > JN47JS 70.6 miles 281° 2019-03-17 04:10:21
DB0ZWI-10 24 2019-03-03 07:05:43 2019-03-03 07:51:39 JO60AJ > JO60FR 30.2 miles 39° 2019-03-03 07:51:39
DE1TBK-10 5 2019-03-17 03:30:54 2019-03-17 04:03:42 JN57CV > JN57DR 13.5 miles 162° 2019-03-17 03:30:54
DJ9ZZZ-10 8 2019-03-03 06:24:35 2019-03-03 06:38:55 JO61TA > JO61OI 27.2 miles 323° 2019-03-03 06:24:35
DM0ESS 11 2019-03-17 04:04:35 2019-03-17 04:17:35 JN57DO > JN57DM 5.7 miles 203° 2019-03-17 04:12:49
DB0MM 33 2019-03-17 03:36:52 2019-03-17 04:18:29 JN57DO > JN57DR 9.0 miles 354° 2019-03-17 04:18:29
DG1JLA-3 29 2019-03-03 06:30:55 2019-03-03 07:16:49 JO61RB > JO60LV 24.9 miles 245° 2019-03-03 06:30:55
DO4DR-10 21 2019-03-03 07:10:55 2019-03-03 07:51:38 JO60AJ > JO60GT 36.9 miles 38° 2019-03-03 07:51:38
DL6FCD 5 2019-03-03 10:54:44 2019-03-17 03:59:57 JN57EO > JN58LI 59.9 miles 30° 2019-03-17 03:59:57
DL1GER-10 61 2019-03-03 10:59:47 2019-03-17 03:55:12 JN57EP > JN58CM 62.4 miles 355° 2019-03-17 03:55:12
OE7XGR-10 1 2019-03-03 11:17:37 2019-03-03 11:17:37 JN48XK > JN57UB 122.6 miles 139° 2019-03-03 11:17:37
DL1WER-10 1 2019-03-17 03:09:53 2019-03-17 03:09:53 JN58BE > JN58CD 7.2 miles 126° 2019-03-17 03:09:53
DB0DLG-10 29 2019-03-03 10:50:06 2019-03-17 03:19:16 JN58BB > JN58FM 34.2 miles 22° 2019-03-17 03:19:16
DL3SFC-10 3 2019-03-03 11:05:14 2019-03-17 03:03:37 JN58AM > JN58CI 13.2 miles 153° 2019-03-03 11:05:14
DM0ET-10 1 2019-03-03 08:25:02 2019-03-03 08:25:02 JO50TA > JN59KT 35.3 miles 248° 2019-03-03 08:25:02
DL2FX-10 115 2019-03-03 10:57:03 2019-03-17 03:22:47 JN58BA > JN58AK 30.3 miles 351° 2019-03-17 03:22:47
DL1NBU-10 1 2019-03-03 08:02:29 2019-03-03 08:02:29 JO50VH > JO50TI 9.6 miles 286° 2019-03-03 08:02:29
DM0RH 15 2019-03-03 09:13:00 2019-03-03 09:44:07 JN59QO > JN59MF 27.2 miles 207° 2019-03-03 09:13:00
DB0ADB-10 2 2019-03-03 08:55:58 2019-03-03 09:38:44 JN59MH > JN59KV 40.5 miles 350° 2019-03-03 09:38:44
DB0AB-10 16 2019-03-03 09:49:09 2019-03-03 10:18:39 JN59JH > JN59GD 16.2 miles 226° 2019-03-03 09:49:09
DB0EEE 1 2019-03-17 03:30:36 2019-03-17 03:30:36 JN57CV > JN58DA 10.3 miles 23° 2019-03-17 03:30:36
DG2NSC-10 1 2019-03-03 08:45:25 2019-03-03 08:45:25 JN59TV > JO50QE 23.3 miles 332° 2019-03-03 08:45:25
DB0TE 17 2019-03-03 11:18:12 2019-03-17 03:17:28 JN58BC > JN48XK 24.6 miles 340° 2019-03-17 03:17:28
DB0ADD 34 2019-03-03 05:40:34 2019-03-03 06:32:13 JO71BA > JO61UA 15.7 miles 273° 2019-03-03 05:40:34
DB0HDH 10 2019-03-03 10:55:04 2019-03-17 03:08:57 JN58BF > JN58BQ 32.4 miles 1° 2019-03-17 03:08:57
DB1DT 1 2019-03-03 10:16:35 2019-03-03 10:16:35 JN59CE > JN49XC 13.8 miles 237° 2019-03-03 10:16:35
DG7NFX-10 9 2019-03-03 09:46:36 2019-03-03 09:59:44 JN59GG > JN59IJ 10.5 miles 25° 2019-03-03 09:59:44
DB0BIB 3 2019-03-03 11:15:07 2019-03-08 07:43:22 JN58AK > JN48VC 26.9 miles 203° 2019-03-08 07:43:22
DK0ND 4 2019-03-03 09:48:49 2019-03-03 09:57:04 JN59HG > JN59JG 6.6 miles 68° 2019-03-03 09:57:04
DB0SLF 4 2019-03-03 07:37:17 2019-03-03 08:06:18 JO60CM > JO50QP 40.5 miles 280° 2019-03-03 07:37:17
DG4MND 7 2019-03-17 03:19:55 2019-03-17 03:27:25 JN58BB > JN57BX 4.4 miles 165° 2019-03-17 03:19:55
DB0FGB 22 2019-03-03 07:37:00 2019-03-03 09:10:10 JO60DM > JO50WB 38.0 miles 208° 2019-03-03 07:37:00
DN1US 3 2019-03-03 11:27:22 2019-03-17 03:17:07 JN58BC > JN48UJ 27.6 miles 317° 2019-03-17 03:17:07
DC1MAK-10 3 2019-03-03 11:19:48 2019-03-17 03:13:22 JN58BD > JN48UL 30.7 miles 320° 2019-03-17 03:13:22

Only position packets which were originated by the station are shown here. The range statistics show some extra long hops, because some digipeaters do not correctly add themselves to the digipeater path. Please check the raw packets.
About this site
This page shows real-time information collected from the Automatic Position Reporting System Internet network (APRS-IS). APRS is used by amateur (ham) radio operators to transmit real-time position information, weather data, telemetry and messages over the radio. A vehicle equipped with a GPS receiver, a VHF transmitter or HF transceiver and a small computer device called a tracker transmits it's location, speed and course in a small data packet, which is then received by a nearby iGate receiving site which forwards the packet on the Internet. Systems connected to the Internet can send information on the APRS-IS without a radio transmitter, or collect and display information transmitted anywhere in the world.
FAQ · Blog · Discussion group · Linking to aprs.fi · AIS sites · Service status · Database statistics · Advertising on aprs.fi · Technical details · API · Change log · Planned changes · Credits and thanks · Terms Of Service · iPhone/iPad APRS